Monte Vista, Colorado
Current Conditions -  °F | °C
As of 2:30 PM on Thursday 18 Dec 2014 (Local Time) from KRCV Reporting Station
Scattered Clouds Scattered Clouds  
Wind Chill: 25°   Ceiling: Unl
Heat Index: 31°   Visibility: 10mi
Dew Point: 20°   Wind: 6mph
Humidity: 65%   Direction: 70°ENE
Pressure: 30.07"   Gusts: NA
Location:  37.58°N, 106.15°W
Report Text: KRCV 182130Z AUTO 07005KT 10SM SCT025 SCT080 M01/M06 A3007 RMK AO2 T10061064
Loading
Personal Weather Stations






























Interactive Weather Map New forecast layout! Learn more

10-Day Weather Forecast

Advertisements
Track Severe Weather on mobile